Vronskiy — C4AY2 — position and weather

sailwx.info

Track history (hours):
 
Tides and Currents Weather Stations Pressure Air Temp Water Temp Dewpoint Dewpoint Depression Visibility Wind Speed Wind Dir Waves Ship Positions

Vronskiy

Last reported at 2017-Jan-14 12:33 UTC. Time now 2017-Feb-20 18:37 UTC.
Position N 36°43' W 002°30'.
Warning: this ship's position is 37 days out of date.

Length 131 m; draft 5.1 m.

Type: Passenger vessel. MMSI: 210030000.

Date/timePositionNaut miles runAvg speedWind from/ knotsBaromVisibWave heightAir tempDewpointWater temp
2017-Jan-14 12:33N 36°43' W 002°30'7 7.1
2017-Jan-14 11:33N 36°50' W 002°28'0 0.0
2017-Jan-14 10:31N 36°50' W 002°28'0 0.0
2017-Jan-14 09:31N 36°50' W 002°28'0 0.0
2017-Jan-14 08:33N 36°50' W 002°28'0 0.0
2017-Jan-14 07:31N 36°50' W 002°28'0 0.0
2017-Jan-14 06:31N 36°50' W 002°28'4 4.6
2017-Jan-14 05:33N 36°46' W 002°29'2 0.1
2017-Jan-13 13:34N 36°44' W 002°29'6 6.4
2017-Jan-13 12:33N 36°50' W 002°28'0 0.0
2017-Jan-13 11:33N 36°50' W 002°28'0 0.0
2017-Jan-13 10:33N 36°50' W 002°28'0 0.0
2017-Jan-13 09:33N 36°50' W 002°28'0 0.0
2017-Jan-13 08:33N 36°50' W 002°28'0 0.0
2017-Jan-13 07:33N 36°50' W 002°28'0 0.0
2017-Jan-13 06:33N 36°50' W 002°28'4 4.0
2017-Jan-13 05:34N 36°46' W 002°28'2 0.1
2017-Jan-12 13:33N 36°45' W 002°29'5 5.3
2017-Jan-12 12:34N 36°50' W 002°28'0 0.0
2017-Jan-12 11:30N 36°50' W 002°28'0 0.0
2017-Jan-12 10:31N 36°50' W 002°28'0 0.0
2017-Jan-12 09:31N 36°50' W 002°28'0 0.0
2017-Jan-12 08:31N 36°50' W 002°28'0 0.0
2017-Jan-12 07:31N 36°50' W 002°28'0 0.0
2017-Jan-12 06:33N 36°50' W 002°28'4 4.2
2017-Jan-12 05:33N 36°46' W 002°27'9 0.3
2017-Jan-11 00:33N 36°38' W 002°25'1111.0
2017-Jan-10 23:33N 36°48' W 002°27'2 1.8
2017-Jan-10 22:32N 36°50' W 002°28'0 0.0
2017-Jan-10 21:32N 36°50' W 002°28'0 0.0
2017-Jan-10 20:32N 36°50' W 002°28'0 0.0
2017-Jan-10 19:32N 36°50' W 002°28'0 0.0
2017-Jan-10 18:32N 36°50' W 002°28'0 0.0
2017-Jan-10 17:32N 36°50' W 002°28'0 0.0
2017-Jan-10 16:32N 36°50' W 002°28'0 0.0
2017-Jan-10 15:32N 36°50' W 002°28'0 0.0
2017-Jan-10 14:32N 36°50' W 002°28'0 0.0
2017-Jan-10 13:32N 36°50' W 002°28'0 0.0
2017-Jan-10 12:32N 36°50' W 002°28'0 0.0
2017-Jan-10 11:32N 36°50' W 002°28'0 0.0
2017-Jan-10 10:32N 36°50' W 002°28'0 0.0
2017-Jan-10 09:32N 36°50' W 002°28'0 0.0
2017-Jan-10 08:32N 36°50' W 002°28'0 0.0
2017-Jan-10 07:32N 36°50' W 002°28'0 0.0
2017-Jan-10 06:32N 36°50' W 002°28'3 3.4
2017-Jan-10 05:33N 36°47' W 002°28'3 0.2
2017-Jan-09 13:33N 36°44' W 002°30'6 5.8
2017-Jan-09 12:32N 36°50' W 002°28'0 0.0
2017-Jan-09 11:23N 36°50' W 002°28'0 0.0
2017-Jan-09 10:29N 36°50' W 002°28'0 0.0
2017-Jan-09 09:17N 36°50' W 002°28'0 0.0
2017-Jan-09 08:32N 36°50' W 002°28'0 0.0
2017-Jan-09 07:23N 36°50' W 002°28'0 0.0
2017-Jan-09 06:32N 36°50' W 002°28'5 5.6
2017-Jan-09 05:33N 36°45' W 002°28'  
2017-Jan-06 13:33N 36°44' W 002°30'7 6.6
2017-Jan-06 12:33N 36°50' W 002°28'0 0.0
2017-Jan-06 11:33N 36°50' W 002°28'0 0.0
2017-Jan-06 10:30N 36°50' W 002°28'0 0.0
2017-Jan-06 09:33N 36°50' W 002°28'0 0.0
2017-Jan-06 08:33N 36°50' W 002°28'0 0.0
2017-Jan-06 07:33N 36°50' W 002°28'0 0.0
2017-Jan-06 06:33N 36°50' W 002°28'4 3.7
2017-Jan-06 05:33N 36°46' W 002°28'3 0.2
2017-Jan-05 13:04N 36°50' W 002°28'0 0.5
2017-Jan-05 12:33N 36°50' W 002°28'0 0.0
2017-Jan-05 11:33N 36°50' W 002°28'0 0.0
2017-Jan-05 10:33N 36°50' W 002°28'0 0.0
2017-Jan-05 09:33N 36°50' W 002°28'0 0.0
2017-Jan-05 08:33N 36°50' W 002°28'0 0.0
2017-Jan-05 06:33N 36°50' W 002°28'5 5.4
2017-Jan-05 05:34N 36°45' W 002°26'  
Track history (hours):
 
Tides and Currents Weather Stations Pressure Air Temp Water Temp Dewpoint Dewpoint Depression Visibility Wind Speed Wind Dir Waves Ship Positions

Vronskiy

Last reported at 2017-Jan-14 12:33 UTC. Time now 2017-Feb-20 18:37 UTC.
Position N 36°43' W 002°30'.
Warning: this ship's position is 37 days out of date.

Length 131 m; draft 5.1 m.

Type: Passenger vessel. MMSI: 210030000.

Date/timePositionNaut miles runAvg speedWind from/ knotsBaromVisibWave heightAir tempDewpointWater temp
2017-Jan-14 12:33N 36°43' W 002°30'7 7.1
2017-Jan-14 11:33N 36°50' W 002°28'0 0.0
2017-Jan-14 10:31N 36°50' W 002°28'0 0.0
2017-Jan-14 09:31N 36°50' W 002°28'0 0.0
2017-Jan-14 08:33N 36°50' W 002°28'0 0.0
2017-Jan-14 07:31N 36°50' W 002°28'0 0.0
2017-Jan-14 06:31N 36°50' W 002°28'4 4.6
2017-Jan-14 05:33N 36°46' W 002°29'2 0.1
2017-Jan-13 13:34N 36°44' W 002°29'6 6.4
2017-Jan-13 12:33N 36°50' W 002°28'0 0.0
2017-Jan-13 11:33N 36°50' W 002°28'0 0.0
2017-Jan-13 10:33N 36°50' W 002°28'0 0.0
2017-Jan-13 09:33N 36°50' W 002°28'0 0.0
2017-Jan-13 08:33N 36°50' W 002°28'0 0.0
2017-Jan-13 07:33N 36°50' W 002°28'0 0.0
2017-Jan-13 06:33N 36°50' W 002°28'4 4.0
2017-Jan-13 05:34N 36°46' W 002°28'2 0.1
2017-Jan-12 13:33N 36°45' W 002°29'5 5.3
2017-Jan-12 12:34N 36°50' W 002°28'0 0.0
2017-Jan-12 11:30N 36°50' W 002°28'0 0.0
2017-Jan-12 10:31N 36°50' W 002°28'0 0.0
2017-Jan-12 09:31N 36°50' W 002°28'0 0.0
2017-Jan-12 08:31N 36°50' W 002°28'0 0.0
2017-Jan-12 07:31N 36°50' W 002°28'0 0.0
2017-Jan-12 06:33N 36°50' W 002°28'4 4.2
2017-Jan-12 05:33N 36°46' W 002°27'9 0.3
2017-Jan-11 00:33N 36°38' W 002°25'1111.0
2017-Jan-10 23:33N 36°48' W 002°27'2 1.8
2017-Jan-10 22:32N 36°50' W 002°28'0 0.0
2017-Jan-10 21:32N 36°50' W 002°28'0 0.0
2017-Jan-10 20:32N 36°50' W 002°28'0 0.0
2017-Jan-10 19:32N 36°50' W 002°28'0 0.0
2017-Jan-10 18:32N 36°50' W 002°28'0 0.0
2017-Jan-10 17:32N 36°50' W 002°28'0 0.0
2017-Jan-10 16:32N 36°50' W 002°28'0 0.0
2017-Jan-10 15:32N 36°50' W 002°28'0 0.0
2017-Jan-10 14:32N 36°50' W 002°28'0 0.0
2017-Jan-10 13:32N 36°50' W 002°28'0 0.0
2017-Jan-10 12:32N 36°50' W 002°28'0 0.0
2017-Jan-10 11:32N 36°50' W 002°28'0 0.0
2017-Jan-10 10:32N 36°50' W 002°28'0 0.0
2017-Jan-10 09:32N 36°50' W 002°28'0 0.0
2017-Jan-10 08:32N 36°50' W 002°28'0 0.0
2017-Jan-10 07:32N 36°50' W 002°28'0 0.0
2017-Jan-10 06:32N 36°50' W 002°28'3 3.4
2017-Jan-10 05:33N 36°47' W 002°28'3 0.2
2017-Jan-09 13:33N 36°44' W 002°30'6 5.8
2017-Jan-09 12:32N 36°50' W 002°28'0 0.0
2017-Jan-09 11:23N 36°50' W 002°28'0 0.0
2017-Jan-09 10:29N 36°50' W 002°28'0 0.0
2017-Jan-09 09:17N 36°50' W 002°28'0 0.0
2017-Jan-09 08:32N 36°50' W 002°28'0 0.0
2017-Jan-09 07:23N 36°50' W 002°28'0 0.0
2017-Jan-09 06:32N 36°50' W 002°28'5 5.6
2017-Jan-09 05:33N 36°45' W 002°28'  
2017-Jan-06 13:33N 36°44' W 002°30'7 6.6
2017-Jan-06 12:33N 36°50' W 002°28'0 0.0
2017-Jan-06 11:33N 36°50' W 002°28'0 0.0
2017-Jan-06 10:30N 36°50' W 002°28'0 0.0
2017-Jan-06 09:33N 36°50' W 002°28'0 0.0
2017-Jan-06 08:33N 36°50' W 002°28'0 0.0
2017-Jan-06 07:33N 36°50' W 002°28'0 0.0
2017-Jan-06 06:33N 36°50' W 002°28'4 3.7
2017-Jan-06 05:33N 36°46' W 002°28'3 0.2
2017-Jan-05 13:04N 36°50' W 002°28'0 0.5
2017-Jan-05 12:33N 36°50' W 002°28'0 0.0
2017-Jan-05 11:33N 36°50' W 002°28'0 0.0
2017-Jan-05 10:33N 36°50' W 002°28'0 0.0
2017-Jan-05 09:33N 36°50' W 002°28'0 0.0
2017-Jan-05 08:33N 36°50' W 002°28'0 0.0
2017-Jan-05 06:33N 36°50' W 002°28'5 5.4
2017-Jan-05 05:34N 36°45' W 002°26'  

Dump ship's entire track history